Terminal Aerodrome Forecast
Issued by NWS

Home | Current Version | Previous Version | Text Only | Print | Product List | Glossary On
Versions: 1 2 3 4 5 6 7 8 9 10 11 12 13 14 15 16 17 18 19 20 21 22 23 24 25 26 27 28 29 30
792
FTUS43 KGLD 231135
TAFMCK
TAF
KMCK 231135Z 2312/2412 13011KT P6SM BKN010
      TEMPO 2312/2316 1SM BR BKN005
     FM231700 17012G20KT P6SM SCT010 BKN250
     FM231800 19015G25KT P6SM SCT250
     FM240100 16011KT P6SM VCTS SCT050CB BKN250
     FM240600 13012G20KT P6SM SCT050 BKN250
     FM240900 04015G25KT P6SM VCSH BKN035=

USA.gov is the U.S. government's official web portal to all federal, state and local government web resources and services.